Time;durP1;ratioP1;P1;durP2;ratioP2;P2;SDS_P1;SDS_P2;PMS_P1;PMS_P2;Temp;Humidity;BMP_temperature;BMP_pressure;BME280_temperature;BME280_humidity;BME280_pressure;Samples;Min_cycle;Max_cycle;Signal;HPM_P1;HPM_P2
2022/09/03 00:00:38;;;;;;;5.88;2.42;;;20.20;99.90;;;;;;5072694;28;20024;-75
2022/09/03 00:03:14;;;;;;;5.25;2.30;;;20.20;99.90;;;;;;5072162;28;20045;-75
2022/09/03 00:06:02;;;;;;;6.10;2.30;;;20.20;99.90;;;;;;5072616;28;20031;-75
2022/09/03 00:08:58;;;;;;;5.43;2.40;;;20.20;99.90;;;;;;5021499;28;20033;-75
2022/09/03 00:11:33;;;;;;;4.68;2.63;;;20.30;99.90;;;;;;5072547;28;20016;-75
2022/09/03 00:14:27;;;;;;;4.53;2.00;;;20.30;99.90;;;;;;5066370;28;20031;-75
2022/09/03 00:17:06;;;;;;;4.22;2.80;;;20.20;99.90;;;;;;5072080;28;20503;-75
2022/09/03 00:19:40;;;;;;;6.03;2.60;;;20.20;99.90;;;;;;5072595;28;20438;-75
2022/09/03 00:22:14;;;;;;;4.15;2.47;;;20.20;99.90;;;;;;5072516;28;20029;-75
2022/09/03 00:24:41;;;;;;;4.57;2.60;;;20.10;99.90;;;;;;5072237;28;20035;-75
2022/09/03 00:27:19;;;;;;;6.47;2.95;;;20.10;99.90;;;;;;5072735;28;20432;-75
2022/09/03 00:29:51;;;;;;;6.15;2.67;;;20.10;99.90;;;;;;5072595;28;20056;-75
2022/09/03 00:32:28;;;;;;;4.75;3.10;;;20.10;99.90;;;;;;5072524;28;20058;-75
2022/09/03 00:34:59;;;;;;;8.30;2.90;;;20.00;99.90;;;;;;5072228;28;20044;-75
2022/09/03 00:37:27;;;;;;;4.72;2.72;;;20.10;99.90;;;;;;5072338;28;20032;-75
2022/09/03 00:39:54;;;;;;;4.25;2.42;;;20.10;99.90;;;;;;5054476;28;20469;-75
2022/09/03 00:42:49;;;;;;;6.97;2.42;;;20.10;99.90;;;;;;5072377;28;20036;-75
2022/09/03 00:45:40;;;;;;;4.85;3.40;;;20.10;99.90;;;;;;5072138;28;20095;-75
2022/09/03 00:48:21;;;;;;;5.72;3.10;;;20.00;99.90;;;;;;5072529;28;20359;-75
2022/09/03 00:50:59;;;;;;;6.82;3.25;;;20.10;99.90;;;;;;5072362;28;20031;-75
2022/09/03 00:53:39;;;;;;;6.55;2.45;;;20.20;99.90;;;;;;5072992;28;20021;-75
2022/09/03 00:56:30;;;;;;;5.13;3.22;;;20.20;99.90;;;;;;5075964;28;20108;-75
2022/09/03 00:59:36;;;;;;;4.45;2.58;;;20.20;99.90;;;;;;5075983;28;20032;-75
2022/09/03 01:02:11;;;;;;;4.88;2.85;;;20.20;99.90;;;;;;5075703;28;20035;-75
2022/09/03 01:05:02;;;;;;;4.75;2.75;;;20.10;99.90;;;;;;5057921;28;20032;-75
2022/09/03 01:07:45;;;;;;;5.50;2.85;;;20.00;99.90;;;;;;5075765;28;20549;-75
2022/09/03 01:10:37;;;;;;;6.68;3.03;;;20.00;99.90;;;;;;5075607;28;20078;-75
2022/09/03 01:13:13;;;;;;;3.92;2.30;;;20.10;99.90;;;;;;5075818;28;20390;-75
2022/09/03 01:15:56;;;;;;;8.13;2.80;;;20.00;99.90;;;;;;5075569;28;20033;-75
2022/09/03 01:18:32;;;;;;;6.57;2.90;;;20.00;99.90;;;;;;5075378;28;20444;-75
2022/09/03 01:21:12;;;;;;;4.95;2.50;;;20.00;99.90;;;;;;5075329;28;20028;-75
2022/09/03 01:24:02;;;;;;;6.35;2.95;;;20.10;99.90;;;;;;5075506;28;20036;-75
2022/09/03 01:26:45;;;;;;;7.10;3.20;;;20.00;99.90;;;;;;5075252;28;20028;-75
2022/09/03 01:29:27;;;;;;;5.18;2.90;;;20.00;99.90;;;;;;5074965;28;20024;-75
2022/09/03 01:32:22;;;;;;;4.78;2.40;;;19.90;99.90;;;;;;5075207;28;20475;-75
2022/09/03 01:35:15;;;;;;;5.90;3.17;;;19.90;99.90;;;;;;5075292;28;20351;-75
2022/09/03 01:38:15;;;;;;;4.10;2.15;;;19.90;99.90;;;;;;5075256;28;20025;-75
2022/09/03 01:40:53;;;;;;;6.82;3.10;;;19.90;99.90;;;;;;5075415;28;20486;-75
2022/09/03 01:43:46;;;;;;;5.82;3.17;;;19.90;99.90;;;;;;5075084;28;20032;-75
2022/09/03 01:46:25;;;;;;;6.82;2.95;;;19.90;99.90;;;;;;5057017;28;20048;-75
2022/09/03 01:48:54;;;;;;;5.53;2.90;;;20.00;99.90;;;;;;5074994;28;20047;-75
2022/09/03 01:51:23;;;;;;;6.05;3.30;;;20.00;99.90;;;;;;5074852;28;20107;-75
2022/09/03 01:54:12;;;;;;;4.85;3.00;;;20.00;99.90;;;;;;5074872;28;20081;-75
2022/09/03 01:57:12;;;;;;;4.03;2.30;;;20.00;99.80;;;;;;5074613;28;20074;-75
2022/09/03 01:59:47;;;;;;;6.97;2.83;;;19.90;99.90;;;;;;5074699;28;20050;-75
2022/09/03 02:02:24;;;;;;;4.43;2.22;;;19.70;99.90;;;;;;5074664;28;20033;-75
2022/09/03 02:05:08;;;;;;;7.10;3.08;;;19.60;99.90;;;;;;5075803;28;20025;-75
2022/09/03 02:08:00;;;;;;;5.05;2.78;;;19.60;99.90;;;;;;5078562;28;20078;-75
2022/09/03 02:10:43;;;;;;;4.35;2.53;;;19.60;99.90;;;;;;5073795;28;20044;-75
2022/09/03 02:13:23;;;;;;;6.82;2.78;;;19.60;99.90;;;;;;5074606;28;20024;-75
2022/09/03 02:15:51;;;;;;;7.28;2.63;;;19.50;99.90;;;;;;5074240;28;20020;-75
2022/09/03 02:18:24;;;;;;;4.00;2.53;;;19.30;99.90;;;;;;5074525;28;20104;-75
2022/09/03 02:20:52;;;;;;;7.28;3.00;;;19.20;99.90;;;;;;5069627;28;20070;-75
2022/09/03 02:23:18;;;;;;;4.63;2.63;;;19.20;99.90;;;;;;5073979;28;20394;-75
2022/09/03 02:25:49;;;;;;;5.20;3.10;;;19.40;99.90;;;;;;5074476;28;20078;-75
2022/09/03 02:28:15;;;;;;;5.90;2.97;;;19.50;99.90;;;;;;5074120;28;20382;-75
2022/09/03 02:30:41;;;;;;;5.25;3.05;;;19.60;99.90;;;;;;5074087;28;20043;-75
2022/09/03 02:33:07;;;;;;;5.38;2.60;;;19.60;99.90;;;;;;5074143;28;20027;-75
2022/09/03 02:35:34;;;;;;;4.93;2.75;;;19.50;99.90;;;;;;5074255;28;20029;-75
2022/09/03 02:38:24;;;;;;;6.90;2.90;;;19.50;99.90;;;;;;5073735;28;20478;-75
2022/09/03 02:40:50;;;;;;;6.05;3.15;;;19.50;99.90;;;;;;5073720;28;20048;-75
2022/09/03 02:43:28;;;;;;;5.38;2.42;;;19.50;99.90;;;;;;5073785;28;20087;-75
2022/09/03 02:46:01;;;;;;;4.93;2.58;;;19.50;99.90;;;;;;5073834;28;20032;-75
2022/09/03 02:48:27;;;;;;;5.85;2.33;;;19.50;99.90;;;;;;5073708;28;20112;-75
2022/09/03 02:50:53;;;;;;;12.70;2.90;;;19.50;99.90;;;;;;5073526;28;20029;-75
2022/09/03 02:53:18;;;;;;;5.07;2.58;;;19.50;99.90;;;;;;5073654;28;20024;-75
2022/09/03 02:55:45;;;;;;;4.68;2.60;;;19.40;99.90;;;;;;5073668;28;20066;-75
2022/09/03 02:58:10;;;;;;;6.03;2.53;;;19.40;99.90;;;;;;5073421;28;20055;-75
2022/09/03 03:00:37;;;;;;;4.60;3.00;;;19.30;99.90;;;;;;5069013;28;20025;-73
2022/09/03 03:03:04;;;;;;;6.22;2.70;;;19.30;99.90;;;;;;5050691;28;20083;-73
2022/09/03 03:05:51;;;;;;;5.82;2.47;;;19.30;99.90;;;;;;5046384;28;20025;-73
2022/09/03 03:08:20;;;;;;;4.90;2.42;;;19.20;99.90;;;;;;5047350;28;20020;-73
2022/09/03 03:10:50;;;;;;;5.80;2.78;;;19.10;99.90;;;;;;5045892;28;20386;-73
2022/09/03 03:13:17;;;;;;;5.38;2.80;;;19.00;99.90;;;;;;5047150;28;20021;-73
2022/09/03 03:15:43;;;;;;;6.15;2.90;;;18.90;99.90;;;;;;5047177;28;20032;-74
2022/09/03 03:18:11;;;;;;;7.00;3.10;;;18.80;99.90;;;;;;5044748;28;20384;-74
2022/09/03 03:20:37;;;;;;;4.63;2.67;;;18.80;99.90;;;;;;5044328;28;20456;-73
2022/09/03 03:23:04;;;;;;;5.05;2.75;;;18.80;99.90;;;;;;5046478;28;20518;-73
2022/09/03 03:25:34;;;;;;;6.15;3.30;;;18.70;99.90;;;;;;5047998;28;20029;-73
2022/09/03 03:28:00;;;;;;;6.22;2.97;;;18.60;99.90;;;;;;5047448;28;20175;-73
2022/09/03 03:30:26;;;;;;;5.45;2.92;;;18.60;99.90;;;;;;5047581;28;20029;-73
2022/09/03 03:32:53;;;;;;;5.75;2.90;;;18.60;99.90;;;;;;5047862;28;20032;-73
2022/09/03 03:35:19;;;;;;;7.82;3.10;;;18.60;99.90;;;;;;5047601;28;20044;-73
2022/09/03 03:37:45;;;;;;;7.95;3.10;;;18.60;99.90;;;;;;5047505;28;20029;-73
2022/09/03 03:40:11;;;;;;;6.80;2.90;;;18.60;99.90;;;;;;5047826;28;20176;-73
2022/09/03 03:42:37;;;;;;;8.40;3.42;;;18.50;99.90;;;;;;5048014;28;20067;-73
2022/09/03 03:45:04;;;;;;;8.02;3.03;;;18.60;99.90;;;;;;5047731;28;20025;-73
2022/09/03 03:47:29;;;;;;;5.35;2.92;;;18.60;99.90;;;;;;5047871;28;20091;-73
2022/09/03 03:49:57;;;;;;;7.72;3.35;;;18.50;99.90;;;;;;5047821;28;20033;-73
2022/09/03 03:52:23;;;;;;;4.45;2.70;;;18.50;99.90;;;;;;5047808;28;20525;-73
2022/09/03 03:54:49;;;;;;;6.80;2.70;;;18.50;99.90;;;;;;5047253;28;20035;-73
2022/09/03 03:57:15;;;;;;;5.97;2.88;;;18.40;99.90;;;;;;5046702;28;20407;-73
2022/09/03 03:59:41;;;;;;;6.97;2.80;;;18.30;99.90;;;;;;5044256;28;20506;-73
2022/09/03 04:02:06;;;;;;;6.90;3.78;;;18.30;99.90;;;;;;5044370;28;20029;-73
2022/09/03 04:04:32;;;;;;;6.93;2.90;;;18.30;99.90;;;;;;5025912;28;20115;-73
2022/09/03 04:06:58;;;;;;;4.40;2.53;;;18.30;99.90;;;;;;5043835;28;20033;-73
2022/09/03 04:09:23;;;;;;;6.25;2.90;;;18.30;99.90;;;;;;5044119;28;20025;-73
2022/09/03 04:11:49;;;;;;;5.95;3.13;;;18.30;99.90;;;;;;5043962;28;20358;-74
2022/09/03 04:14:16;;;;;;;11.20;3.30;;;18.30;99.90;;;;;;5044079;28;20043;-73
2022/09/03 04:16:45;;;;;;;6.32;2.80;;;18.30;99.90;;;;;;5043946;28;20060;-73
2022/09/03 04:19:12;;;;;;;6.35;2.75;;;18.20;99.90;;;;;;5044122;28;20025;-73
2022/09/03 04:21:38;;;;;;;6.57;3.42;;;18.30;99.90;;;;;;5044148;28;20025;-73
2022/09/03 04:24:05;;;;;;;5.72;2.75;;;18.20;99.90;;;;;;5044551;28;20084;-73
2022/09/03 04:26:32;;;;;;;4.47;2.70;;;18.20;99.90;;;;;;5044285;28;20102;-73
2022/09/03 04:29:02;;;;;;;6.22;2.83;;;18.30;99.90;;;;;;5045979;28;20028;-73
2022/09/03 04:31:28;;;;;;;5.95;2.83;;;18.30;99.90;;;;;;5047979;28;20029;-73
2022/09/03 04:33:54;;;;;;;7.40;3.35;;;18.40;99.90;;;;;;5047696;28;20021;-73
2022/09/03 04:36:22;;;;;;;9.10;3.88;;;18.30;99.90;;;;;;5047598;28;20517;-73
2022/09/03 04:38:49;;;;;;;4.40;2.92;;;18.30;99.90;;;;;;5047676;28;20025;-73
2022/09/03 04:41:17;;;;;;;5.10;2.75;;;18.30;99.90;;;;;;5047598;28;20483;-73
2022/09/03 04:43:43;;;;;;;7.57;3.25;;;18.30;99.90;;;;;;5047657;28;20315;-73
2022/09/03 04:46:11;;;;;;;6.85;2.70;;;18.30;99.90;;;;;;5048084;28;20025;-75
2022/09/03 04:48:37;;;;;;;5.63;2.58;;;18.30;99.90;;;;;;5047257;28;20029;-73
2022/09/03 04:51:04;;;;;;;4.60;2.42;;;18.30;99.90;;;;;;5047523;28;20051;-73
2022/09/03 04:53:32;;;;;;;4.50;2.55;;;18.30;99.90;;;;;;5047236;28;20029;-75
2022/09/03 04:55:57;;;;;;;6.50;3.28;;;18.30;99.90;;;;;;5047902;28;20237;-73
2022/09/03 04:58:23;;;;;;;4.93;2.90;;;18.30;99.90;;;;;;5047946;28;20204;-73
2022/09/03 05:00:49;;;;;;;4.32;2.53;;;18.30;99.90;;;;;;5047605;28;20494;-74
2022/09/03 05:03:14;;;;;;;6.47;2.90;;;18.30;99.90;;;;;;5047873;28;20037;-75
2022/09/03 05:05:41;;;;;;;4.65;2.80;;;18.20;99.90;;;;;;5047405;28;20032;-73
2022/09/03 05:08:07;;;;;;;6.07;3.28;;;18.30;99.90;;;;;;5046089;28;20068;-73
2022/09/03 05:10:33;;;;;;;5.30;2.95;;;18.30;99.90;;;;;;5047280;28;20049;-73
2022/09/03 05:13:05;;;;;;;5.13;2.60;;;18.10;99.90;;;;;;5046898;28;20079;-73
2022/09/03 05:15:34;;;;;;;8.07;3.92;;;18.00;99.90;;;;;;5046840;28;20479;-73
2022/09/03 05:18:01;;;;;;;4.97;2.83;;;18.00;99.90;;;;;;5047013;28;20047;-73
2022/09/03 05:20:28;;;;;;;6.25;2.65;;;17.90;99.90;;;;;;5046578;28;20029;-73
2022/09/03 05:22:55;;;;;;;5.78;3.17;;;17.90;99.90;;;;;;5046777;28;20123;-75
2022/09/03 05:25:21;;;;;;;4.78;2.60;;;17.90;99.90;;;;;;5029057;28;20021;-75
2022/09/03 05:27:47;;;;;;;6.30;2.50;;;17.90;99.90;;;;;;5047042;28;20040;-73
2022/09/03 05:30:13;;;;;;;5.20;3.15;;;17.90;99.90;;;;;;5046830;28;20032;-75
2022/09/03 05:32:39;;;;;;;5.93;2.83;;;17.90;99.90;;;;;;5046869;28;20021;-73
2022/09/03 05:35:06;;;;;;;4.65;3.08;;;18.00;99.90;;;;;;5046227;28;20036;-75
2022/09/03 05:37:32;;;;;;;5.35;2.90;;;18.00;99.90;;;;;;5047057;28;20107;-75
2022/09/03 05:39:58;;;;;;;4.30;2.60;;;18.00;99.90;;;;;;5046488;28;20107;-75
2022/09/03 05:42:24;;;;;;;4.68;2.97;;;18.10;99.90;;;;;;5047097;28;20471;-75
2022/09/03 05:44:50;;;;;;;6.80;3.00;;;18.10;99.90;;;;;;5046774;28;20475;-75
2022/09/03 05:47:16;;;;;;;4.97;2.60;;;18.10;99.90;;;;;;5046674;28;20025;-73
2022/09/03 05:49:41;;;;;;;5.68;3.53;;;18.20;99.90;;;;;;5046664;28;20048;-73
2022/09/03 05:52:08;;;;;;;6.70;3.35;;;18.20;99.90;;;;;;5046874;28;20060;-73
2022/09/03 05:54:34;;;;;;;5.43;3.13;;;18.30;99.90;;;;;;5046833;28;20108;-72
2022/09/03 05:57:00;;;;;;;8.07;2.88;;;18.30;99.90;;;;;;5049541;28;20492;-73
2022/09/03 05:59:26;;;;;;;7.55;3.53;;;18.40;99.90;;;;;;5049619;28;20033;-73
2022/09/03 06:01:52;;;;;;;5.88;3.40;;;18.50;99.90;;;;;;5049514;28;20032;-73
2022/09/03 06:04:19;;;;;;;5.32;3.65;;;18.50;99.90;;;;;;5049425;28;20033;-75
2022/09/03 06:06:46;;;;;;;8.43;3.28;;;18.50;99.90;;;;;;5049599;28;20025;-75
2022/09/03 06:09:15;;;;;;;4.85;2.80;;;18.60;99.90;;;;;;5049285;28;20457;-75
2022/09/03 06:11:42;;;;;;;6.20;3.65;;;18.60;99.90;;;;;;5049160;28;20155;-75
2022/09/03 06:14:10;;;;;;;4.65;2.80;;;18.70;99.90;;;;;;5048909;28;20104;-75
2022/09/03 06:16:51;;;;;;;9.93;3.10;;;18.70;99.90;;;;;;5048791;28;20033;-75
2022/09/03 06:19:17;;;;;;;6.15;3.55;;;18.80;99.90;;;;;;5049184;28;20155;-75
2022/09/03 06:21:44;;;;;;;8.65;3.38;;;18.80;99.90;;;;;;5049388;28;20021;-75
2022/09/03 06:24:13;;;;;;;4.05;2.90;;;18.90;99.90;;;;;;5048950;28;20528;-74
2022/09/03 06:26:39;;;;;;;9.45;3.72;;;18.90;99.90;;;;;;5048748;28;20167;-75
2022/09/03 06:29:05;;;;;;;6.63;3.28;;;19.00;99.90;;;;;;5048702;28;20522;-75
2022/09/03 06:31:30;;;;;;;5.00;3.35;;;19.20;99.90;;;;;;5049139;28;20029;-75
2022/09/03 06:33:57;;;;;;;6.07;3.45;;;19.30;99.90;;;;;;5048616;28;20116;-75
2022/09/03 06:36:25;;;;;;;4.90;3.00;;;19.40;99.90;;;;;;5048665;28;20039;-75
2022/09/03 06:38:53;;;;;;;6.40;3.50;;;19.40;99.90;;;;;;5048834;28;20021;-75
2022/09/03 06:41:23;;;;;;;6.60;3.22;;;19.40;99.90;;;;;;5048824;28;20029;-75
2022/09/03 06:43:54;;;;;;;5.80;3.00;;;19.40;99.90;;;;;;5048739;28;20025;-75
2022/09/03 06:46:22;;;;;;;8.75;3.15;;;19.50;99.90;;;;;;5049110;28;20033;-75
2022/09/03 06:48:49;;;;;;;7.65;3.40;;;19.50;99.90;;;;;;5049058;28;20029;-75
2022/09/03 06:51:21;;;;;;;5.25;2.95;;;19.60;99.90;;;;;;5048245;28;20033;-75
2022/09/03 06:53:49;;;;;;;6.07;2.92;;;20.40;99.90;;;;;;5048964;28;20020;-75
2022/09/03 06:56:18;;;;;;;6.97;3.05;;;20.40;99.90;;;;;;5047847;28;20037;-75
2022/09/03 06:58:46;;;;;;;7.20;3.30;;;20.20;99.90;;;;;;5048068;28;20419;-74
2022/09/03 07:01:19;;;;;;;6.53;3.30;;;20.80;99.90;;;;;;5048234;28;20031;-74
2022/09/03 07:03:47;;;;;;;5.28;3.50;;;20.70;99.90;;;;;;5048061;28;20056;-74
2022/09/03 07:06:15;;;;;;;5.05;3.58;;;20.60;99.90;;;;;;5047937;28;20490;-74
2022/09/03 07:08:41;;;;;;;4.35;2.75;;;21.00;99.90;;;;;;5047568;28;20260;-75
2022/09/03 07:11:10;;;;;;;5.80;3.30;;;21.50;99.90;;;;;;5048037;28;20505;-74
2022/09/03 07:13:44;;;;;;;6.90;3.33;;;21.50;99.90;;;;;;5047879;28;20031;-75
2022/09/03 07:16:10;;;;;;;5.90;2.92;;;22.40;99.80;;;;;;5048427;28;20039;-74
2022/09/03 07:18:37;;;;;;;4.82;3.00;;;22.60;99.10;;;;;;5048099;28;20244;-75
2022/09/03 07:21:08;;;;;;;4.53;2.53;;;22.60;99.40;;;;;;5048040;28;20495;-74
2022/09/03 07:23:36;;;;;;;7.75;3.70;;;22.20;99.20;;;;;;5048125;28;20067;-75
2022/09/03 07:26:14;;;;;;;4.60;2.78;;;21.70;99.80;;;;;;5048025;28;20490;-74
2022/09/03 07:28:41;;;;;;;6.60;3.00;;;21.10;99.90;;;;;;5029734;28;20203;-74
2022/09/03 07:31:12;;;;;;;7.80;3.30;;;20.70;99.90;;;;;;5047796;28;20130;-75
2022/09/03 07:33:38;;;;;;;5.82;3.33;;;20.60;99.90;;;;;;5048103;28;20463;-74
2022/09/03 07:36:06;;;;;;;6.15;2.85;;;20.60;99.90;;;;;;5047701;28;20104;-74
2022/09/03 07:38:36;;;;;;;7.72;3.47;;;20.50;99.90;;;;;;5047333;28;20033;-74
2022/09/03 07:41:05;;;;;;;4.20;2.88;;;20.50;99.90;;;;;;5047354;28;20048;-75
2022/09/03 07:43:39;;;;;;;4.47;2.80;;;20.60;99.90;;;;;;5047452;28;20036;-75
2022/09/03 07:46:11;;;;;;;4.60;2.65;;;20.70;99.90;;;;;;5047816;28;20515;-74
2022/09/03 07:48:39;;;;;;;6.47;3.42;;;20.70;99.90;;;;;;5047376;28;20055;-74
2022/09/03 07:51:05;;;;;;;4.90;2.78;;;20.90;99.90;;;;;;5047695;28;20108;-74
2022/09/03 07:53:31;;;;;;;6.80;3.33;;;21.00;99.90;;;;;;5047882;28;20442;-74
2022/09/03 07:56:09;;;;;;;6.55;3.22;;;21.10;99.90;;;;;;5047364;28;20533;-74
2022/09/03 07:58:36;;;;;;;6.70;3.53;;;21.20;99.90;;;;;;5047086;28;20048;-75
2022/09/03 08:01:07;;;;;;;6.28;3.67;;;21.30;99.90;;;;;;5047593;28;20102;-74
2022/09/03 08:03:34;;;;;;;4.15;2.75;;;21.40;99.90;;;;;;5047149;28;20063;-75
2022/09/03 08:06:05;;;;;;;5.40;2.95;;;21.50;99.90;;;;;;5047271;28;20055;-74
2022/09/03 08:08:31;;;;;;;6.10;3.13;;;21.60;99.90;;;;;;5047152;28;20021;-75
2022/09/03 08:11:23;;;;;;;4.22;2.85;;;21.70;99.90;;;;;;5047638;28;20028;-75
2022/09/03 08:14:01;;;;;;;6.22;3.63;;;21.60;99.90;;;;;;5044486;28;20072;-75
2022/09/03 08:16:31;;;;;;;7.38;3.05;;;21.60;99.90;;;;;;5047374;28;20029;-75
2022/09/03 08:18:57;;;;;;;5.65;3.22;;;21.90;99.90;;;;;;5046953;28;20459;-75
2022/09/03 08:21:23;;;;;;;5.82;3.15;;;22.00;99.90;;;;;;5047451;28;20044;-75
2022/09/03 08:23:52;;;;;;;5.15;3.00;;;22.10;99.90;;;;;;5046852;28;20029;-75
2022/09/03 08:26:19;;;;;;;5.32;3.10;;;22.00;99.30;;;;;;5047008;28;20028;-75
2022/09/03 08:28:45;;;;;;;5.28;2.47;;;22.10;99.90;;;;;;5047158;28;20189;-75
2022/09/03 08:31:19;;;;;;;6.40;2.50;;;22.00;99.40;;;;;;5047489;28;20056;-75
2022/09/03 08:33:47;;;;;;;7.57;3.20;;;22.10;99.30;;;;;;5047648;28;20025;-75
2022/09/03 08:36:15;;;;;;;5.70;3.50;;;22.20;98.80;;;;;;5046735;28;20104;-75
2022/09/03 08:38:44;;;;;;;6.57;3.28;;;22.30;98.90;;;;;;5046913;28;20132;-75
2022/09/03 08:41:15;;;;;;;5.00;3.08;;;22.30;98.50;;;;;;5047165;28;20052;-75
2022/09/03 08:44:10;;;;;;;6.55;2.97;;;22.40;98.60;;;;;;5047203;28;20052;-75
2022/09/03 08:46:50;;;;;;;4.20;2.80;;;22.80;98.60;;;;;;5046890;28;20053;-75
2022/09/03 08:49:40;;;;;;;5.05;3.45;;;22.80;97.60;;;;;;5047134;28;20537;-75
2022/09/03 08:52:20;;;;;;;6.20;3.17;;;22.80;97.90;;;;;;5047129;28;20029;-75
2022/09/03 08:54:50;;;;;;;6.30;3.10;;;22.80;97.90;;;;;;5029100;28;20403;-75
2022/09/03 08:57:19;;;;;;;7.00;3.67;;;22.90;97.70;;;;;;5046949;28;20406;-75
2022/09/03 08:59:46;;;;;;;5.25;3.00;;;23.00;98.10;;;;;;5046876;28;20025;-75
2022/09/03 09:02:54;;;;;;;5.85;2.88;;;23.30;97.30;;;;;;5047172;28;20033;-75
2022/09/03 09:05:38;;;;;;;5.85;3.00;;;23.90;95.90;;;;;;4991556;28;20045;-75
2022/09/03 09:08:34;;;;;;;4.90;2.83;;;24.30;95.60;;;;;;5046905;28;20029;-75
2022/09/03 09:11:54;;;;;;;6.22;2.97;;;23.70;96.10;;;;;;5046839;28;20049;-75
2022/09/03 09:14:22;;;;;;;8.80;2.70;;;23.80;96.90;;;;;;5002314;28;20120;-75
2022/09/03 09:16:57;;;;;;;4.65;2.92;;;25.00;95.60;;;;;;5050374;28;20064;-75
2022/09/03 09:19:53;;;;;;;5.78;3.22;;;25.00;94.80;;;;;;5050205;28;20021;-75
2022/09/03 09:22:34;;;;;;;5.13;2.80;;;25.40;95.60;;;;;;5050229;28;20031;-75
2022/09/03 09:25:04;;;;;;;7.38;2.72;;;25.90;94.70;;;;;;5050080;28;20530;-75
2022/09/03 09:27:31;;;;;;;6.35;2.97;;;24.70;96.20;;;;;;5050423;28;20412;-75
2022/09/03 09:30:00;;;;;;;10.40;3.00;;;24.70;96.40;;;;;;5050108;28;20033;-75
2022/09/03 09:32:26;;;;;;;4.00;2.40;;;24.50;95.80;;;;;;5050403;28;20025;-75
2022/09/03 09:34:53;;;;;;;4.43;2.65;;;24.20;96.90;;;;;;5050535;28;20546;-74
2022/09/03 09:37:19;;;;;;;6.13;2.58;;;24.00;97.00;;;;;;5050160;28;20387;-74
2022/09/03 09:39:57;;;;;;;3.42;2.50;;;23.90;97.00;;;;;;5050088;28;20029;-74
2022/09/03 09:42:23;;;;;;;4.60;2.33;;;23.70;96.30;;;;;;5050144;28;20043;-75
2022/09/03 09:44:49;;;;;;;5.90;2.80;;;23.80;96.70;;;;;;5049876;28;20029;-74
2022/09/03 09:47:38;;;;;;;5.15;2.95;;;23.80;96.90;;;;;;5049551;28;20025;-74
2022/09/03 09:50:16;;;;;;;4.90;2.60;;;23.90;97.10;;;;;;5050093;28;20040;-75
2022/09/03 09:52:44;;;;;;;14.93;3.15;;;23.80;96.10;;;;;;5049792;28;20029;-75
2022/09/03 09:55:16;;;;;;;4.45;2.58;;;24.00;96.20;;;;;;5049535;28;20036;-75
2022/09/03 09:57:43;;;;;;;5.63;2.80;;;23.80;95.50;;;;;;5049446;28;20232;-75
2022/09/03 10:00:16;;;;;;;8.30;2.60;;;23.70;97.10;;;;;;5049531;28;20068;-75
2022/09/03 10:02:55;;;;;;;7.97;3.00;;;23.50;96.30;;;;;;5049288;28;20040;-75
2022/09/03 10:05:25;;;;;;;6.10;2.90;;;23.60;95.90;;;;;;5049573;28;20032;-74
2022/09/03 10:08:03;;;;;;;6.43;2.70;;;23.80;95.40;;;;;;5049332;28;20098;-74
2022/09/03 10:10:32;;;;;;;4.07;2.80;;;23.70;95.40;;;;;;5048988;28;20368;-75
2022/09/03 10:13:04;;;;;;;4.63;2.35;;;23.40;95.40;;;;;;5049442;28;20024;-75
2022/09/03 10:15:39;;;;;;;4.85;2.60;;;23.50;96.40;;;;;;5049193;28;20253;-74
2022/09/03 10:18:15;;;;;;;5.07;2.22;;;23.70;96.30;;;;;;5048742;28;20078;-75
2022/09/03 10:20:48;;;;;;;7.45;3.00;;;23.90;95.80;;;;;;5048540;28;20060;-75
2022/09/03 10:23:29;;;;;;;5.45;2.60;;;24.00;94.80;;;;;;5048618;28;20514;-74
2022/09/03 10:26:13;;;;;;;4.22;2.50;;;24.10;94.90;;;;;;5047557;28;20104;-75
2022/09/03 10:28:41;;;;;;;5.40;2.90;;;24.10;94.40;;;;;;5048521;28;20021;-74
2022/09/03 10:31:25;;;;;;;7.55;2.55;;;23.90;94.50;;;;;;5049039;28;20535;-75
2022/09/03 10:33:58;;;;;;;6.72;2.50;;;24.00;95.60;;;;;;5048965;28;20494;-74
2022/09/03 10:37:02;;;;;;;4.03;2.20;;;24.00;94.80;;;;;;5048501;28;20029;-75
2022/09/03 10:39:57;;;;;;;5.25;2.10;;;24.20;95.00;;;;;;5025487;28;20071;-75
2022/09/03 10:42:29;;;;;;;4.38;2.38;;;24.40;94.70;;;;;;5026709;28;20029;-75
2022/09/03 10:45:12;;;;;;;5.25;2.53;;;24.50;94.80;;;;;;5048846;28;20371;-75
2022/09/03 10:48:14;;;;;;;7.65;2.30;;;24.70;95.50;;;;;;5048446;28;20039;-75
2022/09/03 10:51:03;;;;;;;5.47;2.28;;;24.90;94.70;;;;;;5048419;28;20025;-75
2022/09/03 10:53:56;;;;;;;3.80;2.25;;;25.20;95.30;;;;;;5047918;28;20112;-75
2022/09/03 10:56:31;;;;;;;5.90;2.15;;;25.20;94.80;;;;;;5048494;28;20104;-75
2022/09/03 10:59:06;;;;;;;5.35;2.20;;;25.20;93.80;;;;;;5048356;28;20059;-75
2022/09/03 11:01:43;;;;;;;3.92;1.77;;;25.30;93.30;;;;;;5048673;28;20328;-75
2022/09/03 11:04:25;;;;;;;3.80;2.00;;;25.30;93.10;;;;;;5047901;28;20029;-75
2022/09/03 11:06:59;;;;;;;7.00;2.30;;;25.50;93.60;;;;;;5048312;28;20036;-74
2022/09/03 11:09:50;;;;;;;5.80;2.55;;;25.50;93.20;;;;;;5048054;28;20037;-75
2022/09/03 11:12:24;;;;;;;6.32;2.17;;;25.90;94.20;;;;;;5047870;28;20025;-75
2022/09/03 11:15:04;;;;;;;3.83;2.08;;;26.40;93.80;;;;;;5048159;28;20363;-75
2022/09/03 11:17:40;;;;;;;5.63;2.08;;;26.40;93.50;;;;;;5048208;28;20035;-75
2022/09/03 11:20:20;;;;;;;3.58;2.10;;;26.40;93.20;;;;;;5047990;28;20476;-75
2022/09/03 11:22:50;;;;;;;6.07;1.90;;;26.60;94.40;;;;;;5048135;28;20085;-75
2022/09/03 11:25:22;;;;;;;4.57;2.03;;;26.60;93.70;;;;;;5048055;28;20029;-75
2022/09/03 11:28:08;;;;;;;5.30;1.90;;;26.50;92.90;;;;;;5047984;28;20438;-75
2022/09/03 11:31:14;;;;;;;7.40;1.85;;;26.30;93.20;;;;;;5047868;28;20448;-75
2022/09/03 11:33:46;;;;;;;3.22;1.77;;;26.20;93.10;;;;;;5047917;28;20383;-75
2022/09/03 11:36:12;;;;;;;3.08;1.77;;;26.10;92.90;;;;;;5047840;28;20135;-75
2022/09/03 11:38:38;;;;;;;2.90;1.63;;;25.90;92.80;;;;;;5047660;28;20435;-75
2022/09/03 11:41:25;;;;;;;3.33;1.63;;;25.80;92.60;;;;;;5048278;28;20035;-75
2022/09/03 11:43:51;;;;;;;4.70;2.03;;;25.70;93.00;;;;;;5047391;28;20037;-75
2022/09/03 11:46:23;;;;;;;3.38;1.58;;;25.70;93.40;;;;;;5047447;28;20025;-75
2022/09/03 11:48:54;;;;;;;3.38;1.70;;;25.70;93.30;;;;;;5047484;28;20025;-75
2022/09/03 11:51:28;;;;;;;4.18;2.03;;;25.40;93.40;;;;;;5047738;28;20025;-75
2022/09/03 11:54:03;;;;;;;4.25;1.95;;;25.20;92.90;;;;;;5048060;28;20021;-75
2022/09/03 11:56:31;;;;;;;3.60;1.70;;;25.20;93.70;;;;;;5029250;28;20087;-75
2022/09/03 11:59:11;;;;;;;3.53;1.90;;;25.10;94.20;;;;;;5046905;28;20497;-75
2022/09/03 12:01:38;;;;;;;3.15;1.80;;;24.90;93.50;;;;;;5047126;28;20147;-75
2022/09/03 12:04:06;;;;;;;7.03;2.10;;;25.00;94.00;;;;;;5047003;28;20041;-75
2022/09/03 12:06:53;;;;;;;5.82;2.42;;;25.10;93.50;;;;;;5047617;28;20051;-74
2022/09/03 12:09:24;;;;;;;4.93;1.85;;;25.20;94.40;;;;;;5047471;28;20448;-75
2022/09/03 12:12:02;;;;;;;5.68;1.58;;;25.20;93.90;;;;;;5047531;28;20029;-75
2022/09/03 12:14:51;;;;;;;4.63;2.08;;;25.10;93.20;;;;;;5047180;28;20078;-75
2022/09/03 12:17:23;;;;;;;3.20;1.60;;;25.20;94.40;;;;;;5047595;28;20040;-75
2022/09/03 12:19:52;;;;;;;3.60;1.83;;;25.00;93.30;;;;;;5047019;28;20032;-75
2022/09/03 12:22:20;;;;;;;2.55;1.50;;;25.00;94.00;;;;;;5047114;28;20036;-75
2022/09/03 12:24:46;;;;;;;3.53;1.58;;;25.00;93.60;;;;;;5047357;28;20475;-75
2022/09/03 12:27:24;;;;;;;4.13;1.70;;;25.00;93.80;;;;;;5047419;28;20033;-75
2022/09/03 12:29:59;;;;;;;5.18;1.95;;;25.00;93.90;;;;;;5047186;28;20056;-75
2022/09/03 12:32:37;;;;;;;5.88;2.00;;;25.10;93.50;;;;;;5047334;28;20025;-75
2022/09/03 12:35:16;;;;;;;5.30;1.83;;;25.40;93.70;;;;;;5047231;28;20025;-75
2022/09/03 12:37:46;;;;;;;3.75;1.80;;;25.40;94.00;;;;;;5047051;28;20100;-75
2022/09/03 12:40:27;;;;;;;5.35;1.63;;;25.40;93.70;;;;;;5047042;28;20029;-75
2022/09/03 12:42:54;;;;;;;6.03;1.67;;;25.30;93.00;;;;;;5047213;28;20091;-75
2022/09/03 12:45:25;;;;;;;5.75;1.92;;;25.30;93.30;;;;;;5047087;28;20040;-75
2022/09/03 12:47:52;;;;;;;3.65;2.20;;;25.20;94.10;;;;;;5046552;28;20056;-75
2022/09/03 12:50:23;;;;;;;3.60;1.85;;;25.40;94.20;;;;;;5048822;28;20414;-75
2022/09/03 12:53:00;;;;;;;4.00;2.17;;;25.40;93.80;;;;;;5050608;28;20032;-75
2022/09/03 12:56:00;;;;;;;3.00;1.50;;;25.50;93.60;;;;;;5050855;28;20025;-75
2022/09/03 12:58:31;;;;;;;5.88;1.95;;;25.70;92.90;;;;;;5038590;28;20165;-75
2022/09/03 13:01:03;;;;;;;3.50;1.42;;;25.70;93.60;;;;;;5050347;28;20029;-75
2022/09/03 13:03:37;;;;;;;7.20;2.30;;;25.50;93.90;;;;;;5050532;28;20036;-75
2022/09/03 13:06:09;;;;;;;3.63;1.35;;;25.90;93.80;;;;;;5050203;28;20518;-75
2022/09/03 13:08:49;;;;;;;3.28;1.80;;;26.00;92.60;;;;;;5050244;28;20495;-75
2022/09/03 13:11:18;;;;;;;6.57;1.85;;;26.20;92.60;;;;;;5049830;28;20033;-75
2022/09/03 13:14:04;;;;;;;2.25;1.40;;;26.10;93.20;;;;;;5050796;28;20029;-75
2022/09/03 13:16:32;;;;;;;4.32;2.03;;;26.10;92.80;;;;;;5050052;28;20434;-75